Berit — ZDHX2 — position and weather

sailwx.info

Track history (hours):
 
Tides and Currents Weather Stations Pressure Air Temp Water Temp Dewpoint Dewpoint Depression Visibility Wind Speed Wind Dir Waves Ship Positions

Berit

Last reported at 2016-Jun-25 17:33 UTC. Time now 2016-Jun-25 17:56 UTC.
Position N 57°49' E 009°53'.

Length 83 m; draft 4.2 m.

Type: Cargo ship. MMSI: 236386000.

Date/timePositionNaut miles runAvg speedWind from/ knotsBaromVisibWave heightAir tempDewpointWater temp
2016-Jun-25 17:33N 57°49' E 009°53'10 7.6
2016-Jun-25 16:15N 57°50' E 009°34'6 8.5
2016-Jun-25 15:33N 57°50' E 009°23'9 8.9
2016-Jun-25 14:33N 57°51' E 009°07'9 8.9
2016-Jun-25 13:34N 57°51' E 008°50'9 8.6
2016-Jun-25 12:33N 57°52' E 008°34'9 8.8
2016-Jun-25 11:33N 57°52' E 008°18'78 8.4
2016-Jun-25 02:18N 58°19' E 005°59'7 9.7
2016-Jun-25 01:33N 58°24' E 005°49'9 9.2
2016-Jun-25 00:33N 58°30' E 005°36'10 9.8
2016-Jun-24 23:33N 58°38' E 005°25'1010.1
2016-Jun-24 22:33N 58°47' E 005°14'10 9.9
2016-Jun-24 21:33N 58°55' E 005°04'10 9.9
2016-Jun-24 20:33N 59°04' E 004°54'480 9.4
2016-Jun-22 17:20N 66°26' E 011°37'7 9.5
2016-Jun-22 16:33N 66°33' E 011°48'90 8.9
2016-Jun-22 06:24N 67°44' E 014°08'7 8.0
2016-Jun-22 05:33N 67°49' E 014°20'105 7.5
2016-Jun-21 15:34N 69°07' E 017°33'1010.1
2016-Jun-21 14:33N 69°11' E 017°59'3 3.2
2016-Jun-21 13:28N 69°13' E 018°05'0 0.0
2016-Jun-21 12:22N 69°13' E 018°05'0 0.0
2016-Jun-21 11:22N 69°13' E 018°05'0 0.0
2016-Jun-21 10:28N 69°13' E 018°05'0 0.0
2016-Jun-21 09:28N 69°13' E 018°05'0 0.0
2016-Jun-21 08:28N 69°13' E 018°05'0 0.0
2016-Jun-21 07:28N 69°13' E 018°05'0 0.0
2016-Jun-21 06:28N 69°13' E 018°05'0 0.0
2016-Jun-21 04:28N 69°13' E 018°05'0 0.0
2016-Jun-21 03:31N 69°13' E 018°05'0 0.0
2016-Jun-21 02:33N 69°13' E 018°05'7 6.9
2016-Jun-21 01:33N 69°09' E 017°51'117 2.5
2016-Jun-19 02:29N 67°44' E 014°09'83 7.3
2016-Jun-18 15:13N 66°39' E 011°56'4 6.6
2016-Jun-18 14:34N 66°36' E 011°51'6 6.5
2016-Jun-18 13:33N 66°30' E 011°42'  
2016-Jun-15 19:12N 62°44' E 005°55'3 5.0
2016-Jun-15 18:34N 62°41' E 005°51'5 5.2
2016-Jun-15 17:34N 62°37' E 005°44'  
Track history (hours):
 
Tides and Currents Weather Stations Pressure Air Temp Water Temp Dewpoint Dewpoint Depression Visibility Wind Speed Wind Dir Waves Ship Positions

Berit

Last reported at 2016-Jun-25 17:33 UTC. Time now 2016-Jun-25 17:56 UTC.
Position N 57°49' E 009°53'.

Length 83 m; draft 4.2 m.

Type: Cargo ship. MMSI: 236386000.

Date/timePositionNaut miles runAvg speedWind from/ knotsBaromVisibWave heightAir tempDewpointWater temp
2016-Jun-25 17:33N 57°49' E 009°53'10 7.6
2016-Jun-25 16:15N 57°50' E 009°34'6 8.5
2016-Jun-25 15:33N 57°50' E 009°23'9 8.9
2016-Jun-25 14:33N 57°51' E 009°07'9 8.9
2016-Jun-25 13:34N 57°51' E 008°50'9 8.6
2016-Jun-25 12:33N 57°52' E 008°34'9 8.8
2016-Jun-25 11:33N 57°52' E 008°18'78 8.4
2016-Jun-25 02:18N 58°19' E 005°59'7 9.7
2016-Jun-25 01:33N 58°24' E 005°49'9 9.2
2016-Jun-25 00:33N 58°30' E 005°36'10 9.8
2016-Jun-24 23:33N 58°38' E 005°25'1010.1
2016-Jun-24 22:33N 58°47' E 005°14'10 9.9
2016-Jun-24 21:33N 58°55' E 005°04'10 9.9
2016-Jun-24 20:33N 59°04' E 004°54'480 9.4
2016-Jun-22 17:20N 66°26' E 011°37'7 9.5
2016-Jun-22 16:33N 66°33' E 011°48'90 8.9
2016-Jun-22 06:24N 67°44' E 014°08'7 8.0
2016-Jun-22 05:33N 67°49' E 014°20'105 7.5
2016-Jun-21 15:34N 69°07' E 017°33'1010.1
2016-Jun-21 14:33N 69°11' E 017°59'3 3.2
2016-Jun-21 13:28N 69°13' E 018°05'0 0.0
2016-Jun-21 12:22N 69°13' E 018°05'0 0.0
2016-Jun-21 11:22N 69°13' E 018°05'0 0.0
2016-Jun-21 10:28N 69°13' E 018°05'0 0.0
2016-Jun-21 09:28N 69°13' E 018°05'0 0.0
2016-Jun-21 08:28N 69°13' E 018°05'0 0.0
2016-Jun-21 07:28N 69°13' E 018°05'0 0.0
2016-Jun-21 06:28N 69°13' E 018°05'0 0.0
2016-Jun-21 04:28N 69°13' E 018°05'0 0.0
2016-Jun-21 03:31N 69°13' E 018°05'0 0.0
2016-Jun-21 02:33N 69°13' E 018°05'7 6.9
2016-Jun-21 01:33N 69°09' E 017°51'117 2.5
2016-Jun-19 02:29N 67°44' E 014°09'83 7.3
2016-Jun-18 15:13N 66°39' E 011°56'4 6.6
2016-Jun-18 14:34N 66°36' E 011°51'6 6.5
2016-Jun-18 13:33N 66°30' E 011°42'  
2016-Jun-15 19:12N 62°44' E 005°55'3 5.0
2016-Jun-15 18:34N 62°41' E 005°51'5 5.2
2016-Jun-15 17:34N 62°37' E 005°44'  

Dump ship's entire track history